Time;durP1;ratioP1;P1;durP2;ratioP2;P2;SDS_P1;SDS_P2;PMS_P1;PMS_P2;Temp;Humidity;BMP_temperature;BMP_pressure;BME280_temperature;BME280_humidity;BME280_pressure;Samples;Min_cycle;Max_cycle;Signal;HPM_P1;HPM_P2
2022/06/30 00:00:16;;;;;;;;;;;;;;;21.14;29.75;97812.03;4996698;28;874;-78
2022/06/30 00:02:41;;;;;;;;;;;;;;;21.06;29.67;97807.78;4996507;28;847;-79
2022/06/30 00:05:07;;;;;;;;;;;;;;;21.18;29.43;97812.69;4996654;28;1973;-78
2022/06/30 00:07:32;;;;;;;;;;;;;;;21.18;29.45;97806.25;4995969;28;972;-79
2022/06/30 00:09:57;;;;;;;;;;;;;;;21.18;29.26;97801.38;4997032;28;911;-79
2022/06/30 00:12:23;;;;;;;;;;;;;;;21.23;29.24;97797.22;4996480;28;1014;-78
2022/06/30 00:14:48;;;;;;;;;;;;;;;21.10;29.39;97800.00;4996739;28;980;-79
2022/06/30 00:17:14;;;;;;;;;;;;;;;21.54;29.49;97795.50;4996841;28;954;-79
2022/06/30 00:19:40;;;;;;;;;;;;;;;21.54;29.74;97795.50;4997301;28;885;-78
2022/06/30 00:22:07;;;;;;;;;;;;;;;21.76;29.23;97797.69;4996887;28;829;-79
2022/06/30 00:24:33;;;;;;;;;;;;;;;21.54;29.43;97798.34;4996514;28;1898;-79
2022/06/30 00:26:58;;;;;;;;;;;;;;;21.42;29.50;97795.50;4996784;28;1055;-79
2022/06/30 00:29:24;;;;;;;;;;;;;;;21.26;29.95;97790.66;4996912;28;1066;-79
2022/06/30 00:31:49;;;;;;;;;;;;;;;21.42;29.14;97795.50;4996511;28;994;-79
2022/06/30 00:34:14;;;;;;;;;;;;;;;21.19;29.44;97790.84;4996195;28;928;-79
2022/06/30 00:36:40;;;;;;;;;;;;;;;21.25;29.46;97801.19;4996057;28;977;-79
2022/06/30 00:39:05;;;;;;;;;;;;;;;21.25;29.35;97795.53;4996220;28;862;-79
2022/06/30 00:41:31;;;;;;;;;;;;;;;21.15;29.67;97795.84;4997047;28;874;-79
2022/06/30 00:43:56;;;;;;;;;;;;;;;21.16;29.41;97795.38;4996199;28;895;-79
2022/06/30 00:46:22;;;;;;;;;;;;;;;21.17;29.49;97787.69;4996033;28;1922;-79
2022/06/30 00:48:47;;;;;;;;;;;;;;;21.18;29.43;97801.38;4982752;28;973;-79
2022/06/30 00:51:13;;;;;;;;;;;;;;;20.99;29.51;97788.19;5000371;28;787;-79
2022/06/30 00:53:39;;;;;;;;;;;;;;;21.07;29.45;97786.75;4999793;28;968;-79
2022/06/30 00:56:05;;;;;;;;;;;;;;;21.10;29.25;97791.50;4999745;28;834;-79
2022/06/30 00:58:34;;;;;;;;;;;;;;;21.25;28.96;97794.75;4999761;28;1000;-79
2022/06/30 01:00:59;;;;;;;;;;;;;;;21.11;29.43;97790.28;4982480;28;969;-78
2022/06/30 01:03:25;;;;;;;;;;;;;;;21.45;29.26;97792.56;4965263;28;1078;-79
2022/06/30 01:05:50;;;;;;;;;;;;;;;21.54;29.10;97800.38;4999791;28;1922;-79
2022/06/30 01:08:16;;;;;;;;;;;;;;;21.51;29.29;97802.09;4982027;28;926;-79
2022/06/30 01:13:26;;;;;;;;;;;;;;;21.35;29.42;97809.84;4999461;28;861;-78
2022/06/30 01:15:51;;;;;;;;;;;;;;;21.27;29.26;97807.19;4982441;28;917;-79
2022/06/30 01:18:17;;;;;;;;;;;;;;;21.10;29.67;97802.84;4999814;28;866;-79
2022/06/30 01:20:43;;;;;;;;;;;;;;;21.28;29.12;97811.59;4999640;28;937;-79
2022/06/30 01:23:08;;;;;;;;;;;;;;;21.20;29.28;97804.56;4939176;29;929;-79
2022/06/30 01:25:34;;;;;;;;;;;;;;;21.03;29.37;97803.00;4939081;29;1915;-79
2022/06/30 01:28:00;;;;;;;;;;;;;;;20.88;29.13;97776.34;4946789;29;1126;-79
2022/06/30 01:30:26;;;;;;;;;;;;;;;21.25;29.14;97801.19;4958249;29;939;-79
2022/06/30 01:32:51;;;;;;;;;;;;;;;21.13;29.02;97793.44;4958555;29;1015;-79
2022/06/30 01:35:17;;;;;;;;;;;;;;;21.06;29.22;97799.31;4958389;29;991;-79
2022/06/30 01:37:45;;;;;;;;;;;;;;;21.01;29.17;97799.84;4958156;29;910;-79
2022/06/30 01:40:11;;;;;;;;;;;;;;;21.12;29.00;97797.50;4958290;29;1060;-79
2022/06/30 01:42:36;;;;;;;;;;;;;;;21.38;29.12;97803.28;4957911;29;914;-79
2022/06/30 01:45:02;;;;;;;;;;;;;;;21.72;28.83;97783.66;4957804;29;1891;-79
2022/06/30 01:47:27;;;;;;;;;;;;;;;21.40;29.21;97795.13;4958171;29;967;-79
2022/06/30 01:49:53;;;;;;;;;;;;;;;21.49;28.88;97798.09;4938681;29;975;-79
2022/06/30 01:52:18;;;;;;;;;;;;;;;21.19;29.34;97791.66;4938942;29;966;-79
2022/06/30 01:54:44;;;;;;;;;;;;;;;21.26;29.04;97797.13;4967512;28;931;-79
2022/06/30 01:57:09;;;;;;;;;;;;;;;21.34;28.63;97803.38;4977137;28;877;-79
2022/06/30 01:59:35;;;;;;;;;;;;;;;21.24;29.08;97793.94;4976844;28;845;-79
2022/06/30 02:02:00;;;;;;;;;;;;;;;21.47;28.92;97794.94;4977133;28;914;-79
2022/06/30 02:07:09;;;;;;;;;;;;;;;20.91;29.46;97792.44;4976760;28;958;-79
2022/06/30 02:09:35;;;;;;;;;;;;;;;21.00;29.17;97795.44;4976681;28;980;-79
2022/06/30 02:14:44;;;;;;;;;;;;;;;21.03;29.05;97803.81;4976494;28;933;-80
2022/06/30 02:17:10;;;;;;;;;;;;;;;20.95;29.12;97801.63;4976783;28;949;-79
2022/06/30 02:19:35;;;;;;;;;;;;;;;21.28;28.75;97794.63;4976678;28;965;-79
2022/06/30 02:22:01;;;;;;;;;;;;;;;21.65;28.33;97800.84;4997410;28;1738;-79
2022/06/30 02:24:26;;;;;;;;;;;;;;;21.84;28.01;97791.38;4998361;28;1985;-79
2022/06/30 02:26:51;;;;;;;;;;;;;;;21.44;28.51;97801.50;4997921;28;948;-79
2022/06/30 02:29:17;;;;;;;;;;;;;;;21.39;28.88;97804.88;4998150;28;1034;-79
2022/06/30 02:31:42;;;;;;;;;;;;;;;21.09;28.83;97798.41;4998398;28;890;-79
2022/06/30 02:34:08;;;;;;;;;;;;;;;21.16;28.74;97798.22;4998541;28;997;-78
2022/06/30 02:36:33;;;;;;;;;;;;;;;21.31;28.74;97801.47;4998270;28;1130;-79
2022/06/30 02:38:59;;;;;;;;;;;;;;;21.03;29.19;97795.31;4997850;28;1108;-79
2022/06/30 02:41:25;;;;;;;;;;;;;;;21.15;28.85;97810.78;4997875;28;939;-79
2022/06/30 02:43:51;;;;;;;;;;;;;;;21.11;29.00;97815.72;4997712;28;972;-79
2022/06/30 02:46:17;;;;;;;;;;;;;;;21.07;29.13;97806.53;4998052;28;1902;-79
2022/06/30 02:48:43;;;;;;;;;;;;;;;21.04;28.96;97807.44;4997897;28;904;-79
2022/06/30 02:51:09;;;;;;;;;;;;;;;21.10;28.77;97797.16;4998225;28;907;-78
2022/06/30 02:53:34;;;;;;;;;;;;;;;21.07;28.86;97807.34;4997335;28;908;-79
2022/06/30 02:55:59;;;;;;;;;;;;;;;21.01;28.79;97803.47;4997622;28;951;-79
2022/06/30 02:58:25;;;;;;;;;;;;;;;20.96;28.95;97794.72;4997522;28;998;-79
2022/06/30 03:00:50;;;;;;;;;;;;;;;21.37;28.36;97796.84;4997732;28;767;-79
2022/06/30 03:03:16;;;;;;;;;;;;;;;21.46;28.16;97794.16;4997532;28;869;-79
2022/06/30 03:05:41;;;;;;;;;;;;;;;21.37;28.28;97801.72;4997580;28;1911;-79
2022/06/30 03:08:07;;;;;;;;;;;;;;;21.12;28.70;97796.72;4997538;28;840;-79
2022/06/30 03:10:32;;;;;;;;;;;;;;;21.10;28.96;97800.00;4997221;28;868;-79
2022/06/30 03:12:57;;;;;;;;;;;;;;;21.13;28.68;97801.13;4997577;28;919;-79
2022/06/30 03:15:23;;;;;;;;;;;;;;;21.25;28.79;97806.84;4997478;28;850;-79
2022/06/30 03:17:48;;;;;;;;;;;;;;;21.14;28.67;97802.72;4975629;28;1083;-79
2022/06/30 03:20:14;;;;;;;;;;;;;;;21.26;28.64;97802.78;4975561;28;945;-79
2022/06/30 03:22:39;;;;;;;;;;;;;;;21.27;28.37;97804.34;4975667;28;1056;-79
2022/06/30 03:25:05;;;;;;;;;;;;;;;21.19;28.41;97796.50;4975810;28;1918;-79
2022/06/30 03:27:30;;;;;;;;;;;;;;;21.04;28.81;97793.31;4979416;28;1065;-79
2022/06/30 03:29:55;;;;;;;;;;;;;;;21.16;28.57;97797.41;4963098;28;986;-79
2022/06/30 03:32:21;;;;;;;;;;;;;;;21.12;28.56;97791.06;4995404;28;1074;-79
2022/06/30 03:34:46;;;;;;;;;;;;;;;21.42;28.65;97798.31;4994946;28;1046;-79
2022/06/30 03:37:12;;;;;;;;;;;;;;;21.71;27.93;97799.06;4978517;28;1002;-79
2022/06/30 03:39:37;;;;;;;;;;;;;;;21.36;28.35;97794.47;4962398;28;1063;-79
2022/06/30 03:42:03;;;;;;;;;;;;;;;21.23;28.75;97803.66;4995008;28;922;-79
2022/06/30 03:44:28;;;;;;;;;;;;;;;21.22;28.67;97806.94;4994808;28;1906;-79
2022/06/30 03:46:54;;;;;;;;;;;;;;;21.36;28.33;97800.91;4994872;28;949;-79
2022/06/30 03:49:19;;;;;;;;;;;;;;;21.23;28.60;97802.88;4996090;28;1036;-79
2022/06/30 03:51:45;;;;;;;;;;;;;;;21.19;28.59;97807.81;4997163;28;959;-78
2022/06/30 03:54:10;;;;;;;;;;;;;;;21.20;28.49;97801.75;4996829;28;934;-79
2022/06/30 03:56:36;;;;;;;;;;;;;;;21.13;28.72;97804.75;4997208;28;914;-79
2022/06/30 03:59:01;;;;;;;;;;;;;;;21.13;28.74;97804.75;4996677;28;1012;-79
2022/06/30 04:01:27;;;;;;;;;;;;;;;20.95;28.94;97804.47;4997160;28;878;-78
2022/06/30 04:03:52;;;;;;;;;;;;;;;21.43;28.37;97799.91;4996410;28;906;-79
2022/06/30 04:06:17;;;;;;;;;;;;;;;21.59;28.26;97797.00;4996560;28;1915;-79
2022/06/30 04:08:43;;;;;;;;;;;;;;;21.71;27.95;97807.56;4996482;28;1067;-79
2022/06/30 04:11:08;;;;;;;;;;;;;;;21.50;28.27;97806.16;4996541;28;921;-79
2022/06/30 04:13:34;;;;;;;;;;;;;;;21.43;28.36;97797.06;4996665;28;933;-79
2022/06/30 04:15:59;;;;;;;;;;;;;;;21.29;28.63;97807.53;4996706;28;951;-79
2022/06/30 04:18:25;;;;;;;;;;;;;;;21.05;29.06;97804.16;4996250;28;1030;-79
2022/06/30 04:20:50;;;;;;;;;;;;;;;21.22;28.82;97795.63;4995167;28;922;-79
2022/06/30 04:23:16;;;;;;;;;;;;;;;21.14;29.15;97797.88;4999313;28;950;-79
2022/06/30 04:25:41;;;;;;;;;;;;;;;21.16;29.09;97797.41;5000105;28;1914;-79
2022/06/30 04:28:07;;;;;;;;;;;;;;;21.13;28.88;97799.09;4962275;28;1187;-79
2022/06/30 04:33:17;;;;;;;;;;;;;;;21.05;29.34;97807.00;4978471;28;996;-79
2022/06/30 04:35:42;;;;;;;;;;;;;;;20.92;29.39;97805.34;4978313;28;1107;-79
2022/06/30 04:38:07;;;;;;;;;;;;;;;21.07;29.10;97815.03;4978400;28;939;-79
2022/06/30 04:43:17;;;;;;;;;;;;;;;21.72;28.36;97823.31;4964475;28;962;-79
2022/06/30 04:45:42;;;;;;;;;;;;;;;21.82;28.17;97827.88;4959104;29;1902;-79
2022/06/30 04:48:08;;;;;;;;;;;;;;;21.42;28.75;97835.13;4920548;29;1422;-79
2022/06/30 04:50:33;;;;;;;;;;;;;;;21.51;28.67;97829.59;4920684;29;949;-79
2022/06/30 04:52:59;;;;;;;;;;;;;;;21.36;28.79;97828.44;4920544;29;1033;-79
2022/06/30 04:55:24;;;;;;;;;;;;;;;21.33;29.09;97830.09;4920618;29;962;-79
2022/06/30 04:57:50;;;;;;;;;;;;;;;21.16;29.44;97829.34;4920740;29;931;-78
2022/06/30 05:00:15;;;;;;;;;;;;;;;21.27;29.14;97829.81;4939148;29;993;-79
2022/06/30 05:02:41;;;;;;;;;;;;;;;21.10;29.25;97828.28;4939525;29;913;-79
2022/06/30 05:05:06;;;;;;;;;;;;;;;21.19;29.19;97824.81;4939298;29;1907;-79
2022/06/30 05:07:32;;;;;;;;;;;;;;;21.18;29.48;97835.31;4939699;29;856;-79
2022/06/30 05:09:57;;;;;;;;;;;;;;;21.24;29.17;97832.75;4939387;29;914;-79
2022/06/30 05:12:23;;;;;;;;;;;;;;;21.19;29.31;97836.94;4939470;29;1010;-79
2022/06/30 05:14:48;;;;;;;;;;;;;;;21.17;29.27;97842.22;4939642;29;894;-79
2022/06/30 05:17:14;;;;;;;;;;;;;;;21.06;29.40;97850.22;4967677;28;914;-79
2022/06/30 05:19:39;;;;;;;;;;;;;;;21.10;29.39;97845.28;4993446;28;934;-79
2022/06/30 05:22:05;;;;;;;;;;;;;;;20.79;30.20;97848.50;4977714;28;1004;-79
2022/06/30 05:27:14;;;;;;;;;;;;;;;21.05;29.77;97842.97;4977360;28;1226;-79
2022/06/30 05:29:40;;;;;;;;;;;;;;;21.04;29.74;97858.38;4977703;28;1006;-79
2022/06/30 05:32:05;;;;;;;;;;;;;;;21.31;29.75;97861.69;4977785;28;1021;-79
2022/06/30 05:34:31;;;;;;;;;;;;;;;21.49;29.43;97854.72;4976569;28;892;-79
2022/06/30 05:36:56;;;;;;;;;;;;;;;21.55;28.93;97867.09;4977154;28;955;-79
2022/06/30 05:39:22;;;;;;;;;;;;;;;21.35;29.70;97866.44;4977870;28;1029;-79
2022/06/30 05:41:47;;;;;;;;;;;;;;;21.30;29.84;97871.44;4977264;28;946;-79
2022/06/30 05:44:12;;;;;;;;;;;;;;;21.32;29.75;97868.94;4977156;28;1967;-79
2022/06/30 05:46:38;;;;;;;;;;;;;;;21.15;29.87;97872.22;4981152;28;1570;-79
2022/06/30 05:49:05;;;;;;;;;;;;;;;21.15;30.06;97875.84;4996568;28;1490;-79
2022/06/30 05:51:31;;;;;;;;;;;;;;;21.16;30.14;97883.09;4996358;28;1679;-79
2022/06/30 05:53:56;;;;;;;;;;;;;;;21.13;30.06;97878.31;5015794;28;844;-79
2022/06/30 05:56:22;;;;;;;;;;;;;;;21.21;29.84;97874.06;5018526;28;959;-79
2022/06/30 05:58:47;;;;;;;;;;;;;;;21.29;29.60;97875.44;5018591;28;775;-81
2022/06/30 06:01:13;;;;;;;;;;;;;;;21.40;29.61;97874.38;5018850;28;937;-79
2022/06/30 06:03:38;;;;;;;;;;;;;;;21.27;29.92;97877.94;5018688;28;1194;-79
2022/06/30 06:06:04;;;;;;;;;;;;;;;21.27;29.73;97871.47;5018540;28;2368;-81
2022/06/30 06:08:29;;;;;;;;;;;;;;;21.37;30.08;97872.47;4993619;28;1573;-82
2022/06/30 06:10:55;;;;;;;;;;;;;;;21.31;30.31;97873.00;4996129;28;1338;-81
2022/06/30 06:13:20;;;;;;;;;;;;;;;21.25;30.71;97885.28;4996304;28;937;-78
2022/06/30 06:15:46;;;;;;;;;;;;;;;20.90;31.93;97875.72;4996137;28;1225;-80
2022/06/30 06:18:11;;;;;;;;;;;;;;;21.08;31.66;97882.47;5012384;28;1561;-78
2022/06/30 06:20:37;;;;;;;;;;;;;;;21.73;30.70;97880.75;5015180;28;982;-80
2022/06/30 06:23:02;;;;;;;;;;;;;;;22.39;29.61;97882.00;5022029;28;950;-84
2022/06/30 06:25:28;;;;;;;;;;;;;;;21.91;31.17;97891.53;5016445;28;1906;-79
2022/06/30 06:30:37;;;;;;;;;;;;;;;22.56;31.07;97879.84;4918087;29;1164;-71
2022/06/30 06:33:03;;;;;;;;;;;;;;;22.66;31.38;97875.88;4918036;29;1045;-71
2022/06/30 06:35:28;;;;;;;;;;;;;;;22.51;32.38;97883.25;4921571;29;992;-79
2022/06/30 06:37:54;;;;;;;;;;;;;;;23.13;31.66;97881.59;4922236;29;896;-78
2022/06/30 06:40:19;;;;;;;;;;;;;;;23.07;30.98;97879.78;4920795;29;1221;-79
2022/06/30 06:42:45;;;;;;;;;;;;;;;23.08;31.11;97872.88;4919826;29;976;-77
2022/06/30 06:45:10;;;;;;;;;;;;;;;23.09;30.71;97872.41;4921769;29;1981;-78
2022/06/30 06:47:36;;;;;;;;;;;;;;;23.05;30.65;97870.94;4931249;29;961;-84
2022/06/30 06:50:01;;;;;;;;;;;;;;;22.91;30.79;97874.28;4935139;29;994;-81
2022/06/30 06:52:27;;;;;;;;;;;;;;;22.90;30.62;97875.50;4931326;29;984;-79
2022/06/30 06:54:52;;;;;;;;;;;;;;;22.84;30.87;97873.22;4927823;29;1004;-78
2022/06/30 06:57:18;;;;;;;;;;;;;;;23.01;30.34;97864.59;5125070;22;3971;-84
2022/06/30 06:59:43;;;;;;;;;;;;;;;23.13;30.18;97878.75;5045367;28;1079;-79
2022/06/30 07:02:09;;;;;;;;;;;;;;;22.86;30.74;97869.94;5049861;28;739;-77
2022/06/30 07:04:35;;;;;;;;;;;;;;;23.48;29.62;97878.75;5050211;28;1948;-83
2022/06/30 07:07:00;;;;;;;;;;;;;;;23.68;29.18;97880.50;5048310;28;1190;-80
2022/06/30 07:09:26;;;;;;;;;;;;;;;23.22;29.75;97872.38;5047249;28;830;-80
2022/06/30 07:11:52;;;;;;;;;;;;;;;23.08;30.29;97870.03;5038781;28;909;-82
2022/06/30 07:14:17;;;;;;;;;;;;;;;23.30;29.82;97879.38;4987551;28;891;-81
2022/06/30 07:16:42;;;;;;;;;;;;;;;23.14;29.94;97879.53;4963735;28;889;-80
2022/06/30 07:19:08;;;;;;;;;;;;;;;23.04;30.45;97887.16;5003086;28;1031;-79
2022/06/30 07:21:33;;;;;;;;;;;;;;;23.23;30.06;97888.16;5002518;28;925;-77
2022/06/30 07:23:59;;;;;;;;;;;;;;;23.59;29.37;97889.72;5000681;28;897;-82
2022/06/30 07:26:24;;;;;;;;;;;;;;;23.36;29.66;97886.06;5000697;28;1958;-79
2022/06/30 07:28:50;;;;;;;;;;;;;;;23.33;29.75;97881.31;4958440;29;970;-77
2022/06/30 07:31:15;;;;;;;;;;;;;;;23.23;29.61;97882.47;4955822;29;1132;-78
2022/06/30 07:33:42;;;;;;;;;;;;;;;22.91;30.12;97888.47;4955682;29;995;-78
2022/06/30 07:36:08;;;;;;;;;;;;;;;22.68;30.47;97887.53;4955656;29;959;-78
2022/06/30 07:38:34;;;;;;;;;;;;;;;22.80;30.48;97883.91;4955532;29;1086;-75
2022/06/30 07:41:00;;;;;;;;;;;;;;;22.83;30.61;97877.31;4922787;29;1031;-73
2022/06/30 07:43:25;;;;;;;;;;;;;;;22.84;30.68;97884.56;4954495;29;1840;-76
2022/06/30 07:45:52;;;;;;;;;;;;;;;23.30;29.94;97882.22;4978968;28;1914;-84
2022/06/30 07:48:17;;;;;;;;;;;;;;;23.19;30.46;97873.28;4994467;28;1496;-79
2022/06/30 07:50:42;;;;;;;;;;;;;;;23.47;29.61;97873.53;4994570;28;1498;-78
2022/06/30 07:53:08;;;;;;;;;;;;;;;23.62;29.45;97877.41;4966750;28;1515;-78
2022/06/30 07:55:33;;;;;;;;;;;;;;;23.69;29.49;97880.03;4972125;28;1526;-78
2022/06/30 07:57:59;;;;;;;;;;;;;;;23.95;28.76;97874.22;4958361;28;1256;-77
2022/06/30 08:00:25;;;;;;;;;;;;;;;22.75;30.73;97887.31;4956168;29;1032;-81
2022/06/30 08:02:51;;;;;;;;;;;;;;;23.18;30.27;97880.22;4955670;29;1035;-85
2022/06/30 08:05:16;;;;;;;;;;;;;;;23.07;30.90;97874.91;4954340;29;1988;-79
2022/06/30 08:07:41;;;;;;;;;;;;;;;23.33;30.02;97878.47;4935984;29;1016;-79
2022/06/30 08:10:07;;;;;;;;;;;;;;;23.64;29.42;97877.78;4936447;29;1067;-83
2022/06/30 08:12:33;;;;;;;;;;;;;;;23.67;29.17;97879.69;4921290;29;1118;-84
2022/06/30 08:14:59;;;;;;;;;;;;;;;24.07;28.95;97881.84;4936997;29;883;-84
2022/06/30 08:17:24;;;;;;;;;;;;;;;24.21;28.67;97869.16;4978028;28;896;-82
2022/06/30 08:19:50;;;;;;;;;;;;;;;23.97;28.70;97880.22;4992791;28;1254;-81
2022/06/30 08:22:15;;;;;;;;;;;;;;;24.06;29.04;97883.13;4989035;28;1227;-84
2022/06/30 08:24:41;;;;;;;;;;;;;;;23.74;29.34;97882.28;5005045;28;1886;-85
2022/06/30 08:27:06;;;;;;;;;;;;;;;23.38;29.73;97883.56;5021799;28;1470;-77
2022/06/30 08:29:35;;;;;;;;;;;;;;;23.34;30.41;97882.88;5012974;28;1522;-72
2022/06/30 08:32:01;;;;;;;;;;;;;;;23.05;31.23;97885.94;4974661;28;1554;-72
2022/06/30 08:34:26;;;;;;;;;;;;;;;22.92;31.57;97890.03;4977070;28;1003;-75
2022/06/30 08:36:52;;;;;;;;;;;;;;;22.97;32.02;97886.63;4995131;28;888;-76
2022/06/30 08:42:04;;;;;;;;;;;;;;;22.86;31.39;97882.06;5011439;28;1463;-78
2022/06/30 08:44:34;;;;;;;;;;;;;;;22.47;31.77;97893.91;4979276;28;1906;-78
2022/06/30 08:46:59;;;;;;;;;;;;;;;22.61;31.20;97901.97;5014607;28;1474;-79
2022/06/30 08:49:26;;;;;;;;;;;;;;;22.75;30.85;97898.66;5013688;28;1491;-78
2022/06/30 08:51:52;;;;;;;;;;;;;;;22.58;30.78;97900.03;5014941;28;1679;-78
2022/06/30 08:54:17;;;;;;;;;;;;;;;22.55;30.64;97893.22;5013683;28;1471;-78
2022/06/30 08:56:43;;;;;;;;;;;;;;;22.61;30.50;97893.44;4998492;28;1595;-78
2022/06/30 08:59:08;;;;;;;;;;;;;;;22.42;30.49;97885.97;5014728;28;962;-78
2022/06/30 09:01:34;;;;;;;;;;;;;;;22.45;30.43;97896.41;5017938;28;985;-78
2022/06/30 09:03:59;;;;;;;;;;;;;;;22.62;29.97;97895.03;5016231;28;1620;-78
2022/06/30 09:06:25;;;;;;;;;;;;;;;22.54;30.20;97888.03;4999285;28;1907;-78
2022/06/30 09:08:50;;;;;;;;;;;;;;;22.18;30.99;97889.13;5016588;28;953;-79
2022/06/30 09:11:16;;;;;;;;;;;;;;;22.36;30.48;97883.69;5003261;28;1003;-80
2022/06/30 09:13:44;;;;;;;;;;;;;;;22.40;30.24;97891.31;5020215;28;969;-77
2022/06/30 09:16:09;;;;;;;;;;;;;;;22.44;30.09;97886.31;5020818;28;978;-78
2022/06/30 09:18:35;;;;;;;;;;;;;;;22.20;30.50;97883.00;4997973;28;957;-78
2022/06/30 09:21:00;;;;;;;;;;;;;;;22.42;30.29;97883.13;5005171;28;2027;-77
2022/06/30 09:23:29;;;;;;;;;;;;;;;22.54;29.79;97888.03;5014249;28;1115;-78
2022/06/30 09:25:58;;;;;;;;;;;;;;;22.42;29.90;97880.28;5017934;28;1906;-78
2022/06/30 09:28:42;;;;;;;;;;;;;;;22.25;30.23;97883.25;5016845;28;1055;-78
2022/06/30 09:31:08;;;;;;;;;;;;;;;22.38;29.91;97880.41;5018923;28;971;-77
2022/06/30 09:33:35;;;;;;;;;;;;;;;22.41;30.02;97884.38;5017231;28;1045;-77
2022/06/30 09:36:19;;;;;;;;;;;;;;;22.41;29.95;97884.38;5018600;28;996;-77
2022/06/30 09:39:00;;;;;;;;;;;;;;;22.11;30.30;97878.00;5016840;28;969;-78
2022/06/30 09:41:26;;;;;;;;;;;;;;;22.34;30.15;97880.53;5018006;28;947;-78
2022/06/30 09:43:51;;;;;;;;;;;;;;;22.23;29.96;97888.56;5017086;28;962;-77
2022/06/30 09:46:17;;;;;;;;;;;;;;;22.38;29.66;97888.09;5018324;28;1899;-79
2022/06/30 09:48:42;;;;;;;;;;;;;;;22.33;30.07;97881.78;5016898;28;1165;-79
2022/06/30 09:51:08;;;;;;;;;;;;;;;22.55;30.71;97879.06;5021785;28;1519;-80
2022/06/30 09:53:33;;;;;;;;;;;;;;;22.39;30.79;97881.22;5005155;28;1652;-80
2022/06/30 09:56:09;;;;;;;;;;;;;;;22.43;31.15;97882.66;5005772;28;1546;-81
2022/06/30 09:58:35;;;;;;;;;;;;;;;22.58;30.64;97888.69;4936955;28;1369;-81
2022/06/30 10:01:01;;;;;;;;;;;;;;;22.71;30.44;97869.63;4970205;28;1621;-80
2022/06/30 10:03:26;;;;;;;;;;;;;;;22.52;30.87;97884.81;4981253;28;924;-79
2022/06/30 10:06:06;;;;;;;;;;;;;;;22.66;30.58;97873.03;4965799;28;1908;-78
2022/06/30 10:08:31;;;;;;;;;;;;;;;22.98;30.02;97871.19;4946854;28;969;-80
2022/06/30 10:10:57;;;;;;;;;;;;;;;22.60;30.82;97863.50;4963678;28;948;-82
2022/06/30 10:13:22;;;;;;;;;;;;;;;22.74;30.32;97863.03;4961412;29;1046;-82
2022/06/30 10:15:53;;;;;;;;;;;;;;;22.76;30.18;97871.88;4960318;29;1740;-81
2022/06/30 10:18:19;;;;;;;;;;;;;;;22.96;30.20;97862.34;4962628;29;953;-79
2022/06/30 10:20:45;;;;;;;;;;;;;;;22.87;29.99;97866.63;4948872;29;898;-80
2022/06/30 10:23:10;;;;;;;;;;;;;;;22.81;29.99;97862.78;4945791;29;920;-79
2022/06/30 10:25:36;;;;;;;;;;;;;;;22.44;30.63;97866.47;4945816;29;1959;-80
2022/06/30 10:28:03;;;;;;;;;;;;;;;22.55;30.40;97858.41;4980229;28;1251;-81
2022/06/30 10:30:32;;;;;;;;;;;;;;;22.81;30.04;97848.63;5003615;28;861;-83
2022/06/30 10:33:26;;;;;;;;;;;;;;;22.79;30.07;97853.94;5009431;28;1004;-83
2022/06/30 10:35:56;;;;;;;;;;;;;;;22.98;29.64;97854.16;4965965;29;1046;-78
2022/06/30 10:38:40;;;;;;;;;;;;;;;22.56;30.17;97857.16;4958409;29;1187;-79
2022/06/30 10:41:12;;;;;;;;;;;;;;;22.49;30.33;97851.72;4958966;29;923;-79
2022/06/30 10:43:56;;;;;;;;;;;;;;;22.65;30.34;97853.63;4958161;29;1027;-79
2022/06/30 10:46:21;;;;;;;;;;;;;;;22.70;30.20;97853.84;4957936;29;1906;-79
2022/06/30 10:48:53;;;;;;;;;;;;;;;22.52;30.34;97847.97;4944462;29;1084;-79
2022/06/30 10:51:19;;;;;;;;;;;;;;;22.72;30.25;97837.16;4958790;29;1108;-80
2022/06/30 10:53:44;;;;;;;;;;;;;;;22.60;30.02;97846.50;4956154;29;1048;-78
2022/06/30 10:56:10;;;;;;;;;;;;;;;22.57;30.26;97841.72;4959288;29;965;-79
2022/06/30 10:58:35;;;;;;;;;;;;;;;22.77;30.11;97842.25;4956699;29;1183;-81
2022/06/30 11:01:04;;;;;;;;;;;;;;;22.71;30.25;97838.41;4943245;29;971;-79
2022/06/30 11:03:30;;;;;;;;;;;;;;;22.60;30.34;97832.31;4960337;29;1034;-78
2022/06/30 11:05:55;;;;;;;;;;;;;;;22.43;30.52;97842.19;4960593;29;1879;-78
2022/06/30 11:08:36;;;;;;;;;;;;;;;22.24;30.91;97841.97;4960671;29;1054;-79
2022/06/30 11:11:20;;;;;;;;;;;;;;;22.98;30.60;97837.91;4961963;29;1027;-79
2022/06/30 11:13:46;;;;;;;;;;;;;;;23.42;29.61;97837.22;5050026;28;742;-81
2022/06/30 11:16:14;;;;;;;;;;;;;;;23.47;29.96;97833.78;5010391;28;1338;-81
2022/06/30 11:18:40;;;;;;;;;;;;;;;23.43;29.91;97833.13;4999095;28;861;-81
2022/06/30 11:21:05;;;;;;;;;;;;;;;23.71;29.09;97831.28;4980901;28;906;-82
2022/06/30 11:23:36;;;;;;;;;;;;;;;23.43;29.86;97833.13;4958237;29;878;-81
2022/06/30 11:28:46;;;;;;;;;;;;;;;23.90;29.08;97839.44;4964517;29;975;-80
2022/06/30 11:31:21;;;;;;;;;;;;;;;23.75;29.35;97831.94;4925964;29;942;-79
2022/06/30 11:33:50;;;;;;;;;;;;;;;23.82;29.05;97828.81;4940266;29;910;-79
2022/06/30 11:36:16;;;;;;;;;;;;;;;23.68;29.33;97830.16;4921132;29;823;-79
2022/06/30 11:38:41;;;;;;;;;;;;;;;23.66;29.36;97824.13;4921674;29;951;-80
2022/06/30 11:43:51;;;;;;;;;;;;;;;23.51;29.62;97828.75;4901576;29;941;-79
2022/06/30 11:46:16;;;;;;;;;;;;;;;23.56;29.42;97822.47;4898771;29;1906;-80
2022/06/30 11:48:42;;;;;;;;;;;;;;;23.60;29.64;97814.59;4897327;29;1147;-80
2022/06/30 11:51:10;;;;;;;;;;;;;;;23.64;29.48;97821.78;4880333;29;891;-79
2022/06/30 11:53:36;;;;;;;;;;;;;;;23.85;28.98;97819.38;4869883;29;899;-79
2022/06/30 11:56:02;;;;;;;;;;;;;;;23.22;30.34;97817.66;4898434;29;905;-80
2022/06/30 11:58:28;;;;;;;;;;;;;;;23.80;30.03;97812.25;4898153;29;1239;-80
2022/06/30 12:00:53;;;;;;;;;;;;;;;23.72;29.47;97807.28;4898756;29;844;-79
2022/06/30 12:03:19;;;;;;;;;;;;;;;24.12;29.41;97810.19;4917280;29;1312;-81
2022/06/30 12:05:44;;;;;;;;;;;;;;;24.21;29.12;97804.53;4917628;29;1911;-80
2022/06/30 12:08:12;;;;;;;;;;;;;;;23.70;29.79;97807.75;4917095;29;928;-73
2022/06/30 12:10:38;;;;;;;;;;;;;;;23.31;33.80;97807.16;4921422;29;950;-72
2022/06/30 12:13:03;;;;;;;;;;;;;;;23.56;34.56;97802.59;4953184;29;1181;-80
2022/06/30 12:15:29;;;;;;;;;;;;;;;23.62;33.74;97801.53;4907744;29;1648;-83
2022/06/30 12:17:56;;;;;;;;;;;;;;;23.90;32.75;97805.34;4985452;28;1535;-80
2022/06/30 12:20:22;;;;;;;;;;;;;;;24.32;32.09;97796.38;4993591;28;1555;-76
2022/06/30 12:22:48;;;;;;;;;;;;;;;24.56;31.75;97788.09;4993229;28;1601;-82
2022/06/30 12:25:13;;;;;;;;;;;;;;;24.48;31.80;97797.41;4939062;29;1915;-78
2022/06/30 12:27:46;;;;;;;;;;;;;;;24.55;31.60;97785.72;4954462;29;1531;-79
2022/06/30 12:30:12;;;;;;;;;;;;;;;24.42;30.83;97789.47;5011008;28;1539;-80
2022/06/30 12:32:38;;;;;;;;;;;;;;;23.31;32.64;97775.94;4996628;28;1535;-81
2022/06/30 12:35:10;;;;;;;;;;;;;;;23.58;32.50;97775.31;5014175;28;1612;-84
2022/06/30 12:37:36;;;;;;;;;;;;;;;23.96;31.87;97782.00;4998824;28;1159;-78
2022/06/30 12:40:03;;;;;;;;;;;;;;;23.60;32.32;97774.84;4993990;28;954;-79
2022/06/30 12:42:39;;;;;;;;;;;;;;;23.23;32.23;97780.28;4993552;28;940;-79
2022/06/30 12:45:04;;;;;;;;;;;;;;;23.03;32.51;97782.63;4996867;28;1906;-80
2022/06/30 12:47:30;;;;;;;;;;;;;;;22.98;32.15;97786.06;4997652;28;1009;-80
2022/06/30 12:49:55;;;;;;;;;;;;;;;22.75;32.49;97778.75;4997568;28;877;-79
2022/06/30 12:52:21;;;;;;;;;;;;;;;22.74;31.92;97789.28;4996866;28;1056;-78
2022/06/30 12:54:53;;;;;;;;;;;;;;;22.72;31.71;97786.09;4997249;28;896;-79
2022/06/30 12:57:18;;;;;;;;;;;;;;;22.81;31.60;97794.72;4996743;28;1402;-80
2022/06/30 12:59:44;;;;;;;;;;;;;;;22.74;31.43;97794.16;4996966;28;1237;-79
2022/06/30 13:02:09;;;;;;;;;;;;;;;22.63;31.73;97786.00;4996995;28;929;-78
2022/06/30 13:04:35;;;;;;;;;;;;;;;22.63;31.48;97797.34;4997131;28;1906;-78
2022/06/30 13:07:00;;;;;;;;;;;;;;;22.69;31.07;97798.38;4997246;28;978;-79
2022/06/30 13:09:27;;;;;;;;;;;;;;;22.60;31.06;97806.78;4996633;28;976;-80
2022/06/30 13:11:53;;;;;;;;;;;;;;;22.57;31.24;97802.03;4996979;28;932;-79
2022/06/30 13:14:19;;;;;;;;;;;;;;;22.43;31.31;97803.28;4964295;28;938;-78
2022/06/30 13:16:45;;;;;;;;;;;;;;;22.46;31.15;97790.25;4969821;28;967;-79
2022/06/30 13:19:10;;;;;;;;;;;;;;;22.58;30.97;97797.94;5016393;28;928;-78
2022/06/30 13:21:36;;;;;;;;;;;;;;;22.65;30.57;97796.91;5016285;28;969;-79
2022/06/30 13:24:01;;;;;;;;;;;;;;;22.50;30.94;97802.28;5016550;28;1044;-79